Moclips, Washington
Current Conditions -  °F | °C
As of 1:53 PM on Monday 22 Dec 2014 (Local Time) from KHQM Reporting Station
Haze Haze  
Wind Chill: 50°   Ceiling: Unl
Heat Index: 50°   Visibility: 6mi
Dew Point: 45°   Wind: 3mph
Humidity: 83%   Direction: 270°W
Pressure: 30.36"   Gusts: NA
Location:  47.24°N, 124.22°W
Report Text: KHQM 222153Z AUTO 27003KT 6SM HZ FEW120 10/07 A3036 RMK AO2 SLP284 T01000072
Loading
Personal Weather Stations






























Interactive Weather Map New forecast layout! Learn more

10-Day Weather Forecast

Advertisements
Track Severe Weather on mobile